Time;durP1;ratioP1;P1;durP2;ratioP2;P2;SDS_P1;SDS_P2;PMS_P1;PMS_P2;Temp;Humidity;BMP_temperature;BMP_pressure;BME280_temperature;BME280_humidity;BME280_pressure;Samples;Min_cycle;Max_cycle;Signal;HPM_P1;HPM_P2
2021/12/04 00:00:13;;;;;;;2.45;2.25;;;6.60;99.90;;;;;;2076931;28;20378;-69
2021/12/04 00:01:17;;;;;;;2.30;2.10;;;6.60;99.90;;;;;;2074055;28;20101;-70
2021/12/04 00:02:17;;;;;;;3.00;2.42;;;6.60;99.90;;;;;;2073329;28;20069;-70
2021/12/04 00:03:18;;;;;;;2.00;1.90;;;6.50;99.90;;;;;;2073684;28;20100;-70
2021/12/04 00:04:28;;;;;;;2.50;2.08;;;6.50;99.90;;;;;;2074279;28;20026;-69
2021/12/04 00:05:29;;;;;;;2.00;1.90;;;6.60;99.90;;;;;;2065889;28;20023;-69
2021/12/04 00:06:36;;;;;;;2.50;2.30;;;6.50;99.90;;;;;;2070287;28;20026;-70
2021/12/04 00:07:38;;;;;;;2.25;2.05;;;6.50;99.90;;;;;;2073979;28;20026;-70
2021/12/04 00:08:43;;;;;;;2.40;2.20;;;6.50;99.90;;;;;;2074104;28;20033;-69
2021/12/04 00:09:46;;;;;;;1.55;1.50;;;6.50;99.90;;;;;;2071771;28;20026;-70
2021/12/04 00:10:47;;;;;;;1.83;1.73;;;6.60;99.90;;;;;;2072171;28;20034;-70
2021/12/04 00:11:54;;;;;;;1.92;1.83;;;6.60;99.90;;;;;;2074114;28;20105;-69
2021/12/04 00:12:55;;;;;;;2.00;1.90;;;6.60;99.90;;;;;;2073282;28;20378;-69
2021/12/04 00:13:55;;;;;;;2.00;1.88;;;6.60;99.90;;;;;;2074356;28;20038;-70
2021/12/04 00:14:56;;;;;;;1.83;1.73;;;6.60;99.90;;;;;;2073916;28;20033;-69
2021/12/04 00:15:57;;;;;;;1.80;1.70;;;6.60;99.90;;;;;;2074002;28;20030;-69
2021/12/04 00:16:58;;;;;;;1.98;1.88;;;6.60;99.90;;;;;;2073681;28;20041;-70
2021/12/04 00:18:00;;;;;;;1.85;1.70;;;6.60;99.90;;;;;;2074009;28;20409;-70
2021/12/04 00:19:00;;;;;;;2.38;1.95;;;6.60;99.90;;;;;;2074003;28;20075;-69
2021/12/04 00:20:01;;;;;;;2.15;1.85;;;6.60;99.90;;;;;;2074264;28;20462;-69
2021/12/04 00:21:01;;;;;;;2.92;2.00;;;6.60;99.90;;;;;;2074003;28;20041;-69
2021/12/04 00:22:03;;;;;;;2.08;1.88;;;6.60;99.90;;;;;;2073343;28;20676;-69
2021/12/04 00:23:03;;;;;;;2.03;1.92;;;6.60;99.90;;;;;;2072658;28;20054;-69
2021/12/04 00:24:04;;;;;;;2.13;2.03;;;6.60;99.90;;;;;;2073881;28;20022;-69
2021/12/04 00:25:06;;;;;;;2.60;1.70;;;6.60;99.90;;;;;;2074144;28;20025;-69
2021/12/04 00:26:06;;;;;;;1.98;1.88;;;6.60;99.90;;;;;;2073703;28;20065;-69
2021/12/04 00:27:07;;;;;;;2.17;1.90;;;6.60;99.90;;;;;;2073862;28;20474;-69
2021/12/04 00:28:07;;;;;;;2.25;1.80;;;6.60;99.90;;;;;;2074192;28;20022;-69
2021/12/04 00:29:08;;;;;;;2.83;1.85;;;6.60;99.90;;;;;;2074260;28;20022;-69
2021/12/04 00:30:09;;;;;;;2.20;2.00;;;6.60;99.90;;;;;;2073964;28;20133;-70
2021/12/04 00:31:10;;;;;;;1.45;1.35;;;6.70;99.90;;;;;;2073902;28;20116;-69
2021/12/04 00:32:13;;;;;;;1.77;1.67;;;6.60;99.90;;;;;;2073050;28;20034;-69
2021/12/04 00:33:23;;;;;;;1.67;1.58;;;6.60;99.90;;;;;;2074384;28;20144;-69
2021/12/04 00:34:26;;;;;;;2.17;1.40;;;6.60;99.90;;;;;;2074449;28;20014;-69
2021/12/04 00:43:15;;;;;;;3.28;1.80;;;6.60;99.90;;;;;;2073965;28;20041;-69
2021/12/04 00:49:06;;;;;;;1.90;1.80;;;6.60;99.90;;;;;;2073814;28;20030;-70
2021/12/04 00:49:13;;;;;;;1.65;1.55;;;6.60;99.90;;;;;;2032470;29;20087;-70
2021/12/04 00:50:14;;;;;;;1.83;1.73;;;6.50;99.90;;;;;;2036176;29;20020;-69
2021/12/04 00:51:15;;;;;;;2.15;1.98;;;6.60;99.90;;;;;;2045295;28;20226;-69
2021/12/04 00:52:16;;;;;;;2.00;1.80;;;6.60;99.90;;;;;;2073570;28;20041;-69
2021/12/04 00:53:17;;;;;;;1.90;1.70;;;6.60;99.90;;;;;;2073332;28;20105;-69
2021/12/04 00:54:18;;;;;;;2.38;1.52;;;6.60;99.90;;;;;;2074308;28;20022;-69
2021/12/04 00:55:19;;;;;;;1.85;1.67;;;6.60;99.90;;;;;;2074138;28;20067;-69
2021/12/04 00:56:20;;;;;;;1.70;1.60;;;6.60;99.90;;;;;;2081397;28;20052;-69
2021/12/04 00:57:21;;;;;;;2.03;1.80;;;6.60;99.90;;;;;;2081268;28;20520;-69
2021/12/04 00:58:22;;;;;;;2.15;1.77;;;6.60;99.90;;;;;;2072914;28;20413;-70
2021/12/04 00:59:22;;;;;;;1.80;1.70;;;6.70;99.90;;;;;;2080719;28;20045;-69
2021/12/04 01:00:23;;;;;;;2.25;1.88;;;6.70;99.90;;;;;;2073570;28;20026;-69
2021/12/04 01:01:24;;;;;;;1.90;1.80;;;6.70;99.90;;;;;;2071928;28;20024;-69
2021/12/04 01:02:24;;;;;;;1.85;1.70;;;6.70;99.90;;;;;;2072312;28;20037;-70
2021/12/04 01:03:25;;;;;;;2.00;1.90;;;6.70;99.90;;;;;;2072297;28;20030;-70
2021/12/04 01:04:26;;;;;;;1.77;1.67;;;6.70;99.90;;;;;;2072731;28;20034;-70
2021/12/04 01:05:27;;;;;;;2.00;1.90;;;6.70;99.90;;;;;;2072365;28;20026;-69
2021/12/04 01:06:27;;;;;;;2.95;2.13;;;6.70;99.90;;;;;;2072723;28;20020;-69
2021/12/04 01:07:28;;;;;;;2.10;2.00;;;6.70;99.90;;;;;;2072245;28;20022;-70
2021/12/04 01:08:28;;;;;;;2.20;2.03;;;6.80;99.90;;;;;;2072899;28;20089;-70
2021/12/04 01:09:29;;;;;;;2.03;1.92;;;6.80;99.90;;;;;;2072234;28;20021;-69
2021/12/04 01:10:30;;;;;;;2.38;2.20;;;6.80;99.90;;;;;;2068423;28;20045;-70
2021/12/04 01:11:30;;;;;;;2.00;1.90;;;6.80;99.90;;;;;;2071732;28;20026;-70
2021/12/04 01:12:31;;;;;;;3.30;2.40;;;6.80;99.90;;;;;;2072140;28;20036;-70
2021/12/04 01:13:33;;;;;;;2.20;2.00;;;6.80;99.90;;;;;;2072758;28;20034;-70
2021/12/04 01:14:33;;;;;;;2.28;2.10;;;6.80;99.90;;;;;;2072821;28;20026;-70
2021/12/04 01:15:34;;;;;;;3.17;2.30;;;6.80;99.90;;;;;;2072229;28;20034;-70
2021/12/04 01:16:35;;;;;;;2.00;1.90;;;6.80;99.90;;;;;;2072290;28;20018;-70
2021/12/04 01:17:35;;;;;;;2.45;2.22;;;6.80;99.90;;;;;;2072392;28;20026;-69
2021/12/04 01:18:36;;;;;;;2.33;2.13;;;6.80;99.90;;;;;;2072365;28;20379;-69
2021/12/04 01:19:37;;;;;;;2.78;2.58;;;6.80;99.90;;;;;;2072371;28;20029;-70
2021/12/04 01:20:39;;;;;;;2.60;2.40;;;6.80;99.90;;;;;;2072449;28;20076;-71
2021/12/04 01:21:39;;;;;;;2.30;2.20;;;6.80;99.90;;;;;;2071621;28;20022;-70
2021/12/04 01:22:40;;;;;;;2.47;2.38;;;6.80;99.90;;;;;;2071001;28;20018;-70
2021/12/04 01:23:40;;;;;;;2.40;2.30;;;6.80;99.90;;;;;;2072248;28;20446;-70
2021/12/04 01:24:41;;;;;;;2.53;2.30;;;6.80;99.90;;;;;;2072647;28;20106;-70
2021/12/04 01:25:45;;;;;;;2.47;2.28;;;6.80;99.90;;;;;;2072549;28;20025;-70
2021/12/04 01:26:47;;;;;;;3.17;2.70;;;6.80;99.90;;;;;;2072511;28;20812;-70
2021/12/04 01:27:47;;;;;;;2.83;2.63;;;6.80;99.90;;;;;;2072257;28;20436;-70
2021/12/04 01:28:48;;;;;;;2.30;2.20;;;6.80;99.90;;;;;;2072309;28;20080;-70
2021/12/04 01:29:48;;;;;;;2.45;2.25;;;6.80;99.90;;;;;;2072472;28;20025;-70
2021/12/04 01:30:49;;;;;;;2.83;2.63;;;6.80;99.90;;;;;;2072172;28;20101;-70
2021/12/04 01:31:50;;;;;;;4.07;2.60;;;6.80;99.90;;;;;;2072586;28;20034;-70
2021/12/04 01:32:51;;;;;;;3.83;2.83;;;6.80;99.90;;;;;;2071675;28;20030;-70
2021/12/04 01:33:52;;;;;;;2.38;2.28;;;6.80;99.90;;;;;;2072390;28;20037;-70
2021/12/04 01:34:54;;;;;;;3.20;2.92;;;6.80;99.90;;;;;;2076838;28;20039;-70
2021/12/04 01:35:55;;;;;;;2.90;2.70;;;6.80;99.90;;;;;;2074158;28;20129;-70
2021/12/04 01:36:55;;;;;;;2.72;2.47;;;6.80;99.90;;;;;;2071926;28;20038;-70
2021/12/04 01:37:56;;;;;;;3.13;2.88;;;6.80;99.90;;;;;;2072524;28;20026;-70
2021/12/04 01:38:57;;;;;;;2.75;2.58;;;6.80;99.90;;;;;;2072674;28;20470;-70
2021/12/04 01:39:57;;;;;;;2.42;2.22;;;6.90;99.90;;;;;;2072710;28;20968;-71
2021/12/04 01:40:58;;;;;;;2.72;2.53;;;6.90;99.90;;;;;;2072147;28;20030;-70
2021/12/04 01:41:58;;;;;;;2.75;2.55;;;6.90;99.90;;;;;;2071527;28;20527;-70
2021/12/04 01:42:59;;;;;;;3.85;2.80;;;6.90;99.90;;;;;;2071503;28;20105;-70
2021/12/04 01:44:01;;;;;;;2.72;2.55;;;6.90;99.90;;;;;;2072072;28;20042;-70
2021/12/04 01:45:04;;;;;;;3.10;2.80;;;6.90;99.90;;;;;;2072431;28;20128;-70
2021/12/04 01:46:05;;;;;;;3.25;2.97;;;6.90;99.90;;;;;;2072747;28;20116;-70
2021/12/04 01:47:20;;;;;;;3.10;2.90;;;6.90;99.90;;;;;;2072147;28;20030;-70
2021/12/04 01:48:21;;;;;;;2.83;2.63;;;6.90;99.90;;;;;;2072298;28;20026;-70
2021/12/04 01:49:25;;;;;;;4.97;3.10;;;6.90;99.90;;;;;;2072300;28;20057;-70
2021/12/04 01:50:27;;;;;;;3.53;3.20;;;6.80;99.90;;;;;;2072182;28;20061;-70
2021/12/04 01:51:27;;;;;;;3.33;2.92;;;6.80;99.90;;;;;;2071498;28;20021;-70
2021/12/04 01:52:29;;;;;;;3.20;3.00;;;6.80;99.90;;;;;;2071925;28;20014;-70
2021/12/04 01:53:31;;;;;;;3.45;3.15;;;6.80;99.90;;;;;;2072083;28;20033;-70
2021/12/04 01:54:31;;;;;;;2.95;2.70;;;6.80;99.90;;;;;;2072264;28;20036;-70
2021/12/04 01:55:35;;;;;;;3.58;3.28;;;6.80;99.90;;;;;;2071862;28;20068;-70
2021/12/04 01:56:35;;;;;;;3.47;3.17;;;6.80;99.90;;;;;;2072241;28;20030;-70
2021/12/04 01:57:37;;;;;;;2.97;2.78;;;6.80;99.90;;;;;;2071956;28;20022;-70
2021/12/04 01:58:40;;;;;;;3.67;3.22;;;6.80;99.90;;;;;;2075341;28;20052;-70
2021/12/04 01:59:42;;;;;;;3.20;2.90;;;6.80;99.90;;;;;;2078052;28;20029;-70
2021/12/04 02:00:42;;;;;;;3.78;3.30;;;6.80;99.90;;;;;;2071425;28;20474;-70
2021/12/04 02:01:43;;;;;;;3.30;2.95;;;6.80;99.90;;;;;;2069121;28;20423;-70
2021/12/04 02:02:43;;;;;;;4.20;3.25;;;6.80;99.90;;;;;;2071510;28;20033;-70
2021/12/04 02:03:44;;;;;;;3.60;3.28;;;6.80;99.90;;;;;;2071515;28;20104;-70
2021/12/04 02:04:45;;;;;;;5.70;3.33;;;6.80;99.90;;;;;;2072225;28;20278;-70
2021/12/04 02:05:48;;;;;;;3.47;3.17;;;6.80;99.90;;;;;;2071710;28;20029;-70
2021/12/04 02:06:48;;;;;;;3.70;3.40;;;6.70;99.90;;;;;;2072045;28;20042;-70
2021/12/04 02:07:49;;;;;;;3.92;3.00;;;6.80;99.90;;;;;;2072137;28;20033;-70
2021/12/04 02:08:51;;;;;;;3.15;2.95;;;6.80;99.90;;;;;;2072389;28;20052;-70
2021/12/04 02:09:51;;;;;;;3.38;3.08;;;6.80;99.90;;;;;;2068595;28;20161;-70
2021/12/04 02:10:57;;;;;;;4.43;3.47;;;6.70;99.90;;;;;;2070719;28;20022;-70
2021/12/04 02:11:58;;;;;;;3.90;3.33;;;6.70;99.90;;;;;;2071452;28;20026;-70
2021/12/04 02:12:59;;;;;;;3.38;3.10;;;6.70;99.90;;;;;;2071371;28;20049;-70
2021/12/04 02:14:00;;;;;;;3.45;3.25;;;6.70;99.90;;;;;;2071950;28;20429;-69
2021/12/04 02:15:02;;;;;;;4.05;3.60;;;6.70;99.90;;;;;;2072339;28;20490;-69
2021/12/04 02:16:13;;;;;;;3.30;3.10;;;6.70;99.90;;;;;;2072313;28;20742;-70
2021/12/04 02:17:13;;;;;;;3.17;2.92;;;6.70;99.90;;;;;;2072203;28;20026;-70
2021/12/04 02:18:15;;;;;;;3.35;3.00;;;6.70;99.90;;;;;;2071370;28;20100;-70
2021/12/04 02:19:16;;;;;;;3.95;3.00;;;6.70;99.90;;;;;;2072124;28;20458;-70
2021/12/04 02:20:20;;;;;;;3.35;3.10;;;6.70;99.90;;;;;;2071658;28;20419;-70
2021/12/04 02:21:21;;;;;;;3.83;3.25;;;6.70;99.90;;;;;;2072188;28;20037;-70
2021/12/04 02:22:21;;;;;;;5.97;3.42;;;6.70;99.90;;;;;;2071066;28;20033;-70
2021/12/04 02:23:22;;;;;;;3.50;3.20;;;6.70;99.90;;;;;;2072156;28;20033;-70
2021/12/04 02:24:23;;;;;;;3.33;3.08;;;6.70;99.90;;;;;;2071765;28;20097;-69
2021/12/04 02:25:23;;;;;;;3.75;3.42;;;6.70;99.90;;;;;;2072096;28;20026;-70
2021/12/04 02:26:24;;;;;;;3.58;3.28;;;6.80;99.90;;;;;;2071437;28;20022;-70
2021/12/04 02:27:25;;;;;;;3.28;3.08;;;6.80;99.90;;;;;;2071852;28;20274;-70
2021/12/04 02:28:25;;;;;;;3.65;3.35;;;6.80;99.90;;;;;;2071824;28;20457;-70
2021/12/04 02:29:26;;;;;;;3.22;2.90;;;6.80;99.90;;;;;;2071911;28;20103;-70
2021/12/04 02:30:29;;;;;;;3.85;2.88;;;6.80;99.90;;;;;;2071580;28;20022;-70
2021/12/04 02:31:30;;;;;;;3.15;2.90;;;6.80;99.90;;;;;;2072083;28;20038;-70
2021/12/04 02:32:31;;;;;;;4.30;3.00;;;6.80;99.90;;;;;;2068890;28;20109;-70
2021/12/04 02:33:32;;;;;;;2.95;2.75;;;6.80;99.90;;;;;;2071131;28;20026;-70
2021/12/04 02:34:33;;;;;;;3.30;2.95;;;6.80;99.90;;;;;;2073767;28;20026;-70
2021/12/04 02:35:33;;;;;;;3.50;3.20;;;6.80;99.90;;;;;;2072005;28;20026;-70
2021/12/04 02:36:35;;;;;;;2.92;2.72;;;6.80;99.90;;;;;;2071728;28;20483;-70
2021/12/04 02:37:37;;;;;;;3.38;3.08;;;6.80;99.90;;;;;;2067968;28;20374;-70
2021/12/04 02:38:38;;;;;;;3.33;3.10;;;6.80;99.90;;;;;;2062168;28;20040;-70
2021/12/04 02:39:44;;;;;;;3.20;2.90;;;6.80;99.90;;;;;;2071448;28;20038;-70
2021/12/04 02:40:46;;;;;;;2.97;2.67;;;6.80;99.90;;;;;;2071647;28;20445;-70
2021/12/04 02:41:46;;;;;;;3.35;3.15;;;6.80;99.90;;;;;;2071740;28;20037;-70
2021/12/04 02:42:49;;;;;;;3.20;3.00;;;6.80;99.90;;;;;;2071035;28;20030;-70
2021/12/04 02:43:49;;;;;;;3.50;3.30;;;6.80;99.90;;;;;;2071701;28;20089;-70
2021/12/04 02:44:50;;;;;;;3.17;2.80;;;6.70;99.90;;;;;;2071385;28;20056;-70
2021/12/04 02:45:51;;;;;;;3.30;3.00;;;6.80;99.90;;;;;;2071813;28;20469;-70
2021/12/04 02:46:51;;;;;;;3.45;3.15;;;6.70;99.90;;;;;;2071528;28;21809;-70
2021/12/04 02:47:52;;;;;;;3.42;3.22;;;6.70;99.90;;;;;;2072084;28;20025;-70
2021/12/04 02:48:52;;;;;;;3.53;3.22;;;6.70;99.90;;;;;;2071545;28;20018;-70
2021/12/04 02:49:53;;;;;;;3.15;2.95;;;6.70;99.90;;;;;;2071863;28;20029;-69
2021/12/04 02:50:55;;;;;;;3.95;3.33;;;6.70;99.90;;;;;;2071529;28;20034;-70
2021/12/04 02:52:03;;;;;;;3.17;2.97;;;6.70;99.90;;;;;;2071858;28;20026;-70
2021/12/04 02:53:04;;;;;;;2.85;2.65;;;6.70;99.90;;;;;;2071047;28;20025;-70
2021/12/04 02:54:06;;;;;;;3.55;3.25;;;6.70;99.90;;;;;;2071858;28;20149;-70
2021/12/04 02:55:07;;;;;;;2.72;2.53;;;6.70;99.90;;;;;;2071058;28;20092;-70
2021/12/04 02:56:08;;;;;;;3.85;3.42;;;6.70;99.90;;;;;;2071767;28;20033;-70
2021/12/04 02:57:11;;;;;;;5.28;3.25;;;6.70;99.90;;;;;;2071545;28;20064;-70
2021/12/04 02:58:14;;;;;;;3.58;3.28;;;6.70;99.90;;;;;;2071572;28;20025;-70
2021/12/04 02:59:15;;;;;;;3.83;3.30;;;6.70;99.90;;;;;;2071530;28;20026;-70
2021/12/04 03:00:18;;;;;;;3.20;3.00;;;6.70;99.90;;;;;;2072009;28;20037;-70
2021/12/04 03:01:19;;;;;;;3.30;3.00;;;6.80;99.90;;;;;;2071774;28;20026;-70
2021/12/04 03:02:22;;;;;;;3.65;3.25;;;6.80;99.90;;;;;;2071697;28;20044;-70
2021/12/04 03:03:22;;;;;;;3.50;3.13;;;6.80;99.90;;;;;;2070959;28;20113;-70
2021/12/04 03:04:24;;;;;;;3.33;3.05;;;6.80;99.90;;;;;;2071845;28;20072;-70
2021/12/04 03:05:28;;;;;;;3.42;3.13;;;6.80;99.90;;;;;;2071571;28;20029;-70
2021/12/04 03:06:29;;;;;;;3.90;3.55;;;6.80;99.90;;;;;;2071489;28;20091;-70
2021/12/04 03:07:29;;;;;;;3.22;3.03;;;6.80;99.90;;;;;;2071498;28;20462;-70
2021/12/04 03:08:30;;;;;;;3.53;3.13;;;6.80;99.90;;;;;;2071751;28;20041;-70
2021/12/04 03:09:30;;;;;;;3.55;3.35;;;6.80;99.90;;;;;;2071111;28;20771;-69
2021/12/04 03:10:31;;;;;;;3.70;3.10;;;6.80;99.90;;;;;;2071664;28;20040;-70
2021/12/04 03:11:32;;;;;;;3.42;3.13;;;6.80;99.90;;;;;;2071440;28;20026;-70
2021/12/04 03:12:32;;;;;;;3.17;2.90;;;6.80;99.90;;;;;;2071234;28;20021;-70
2021/12/04 03:13:33;;;;;;;5.05;2.90;;;6.80;99.90;;;;;;2071358;28;20100;-69
2021/12/04 03:14:34;;;;;;;3.90;3.60;;;6.80;99.90;;;;;;2071424;28;20030;-70
2021/12/04 03:15:42;;;;;;;3.30;3.10;;;6.80;99.90;;;;;;2071575;28;20041;-70
2021/12/04 03:16:43;;;;;;;3.42;2.90;;;6.80;99.90;;;;;;2071869;28;20370;-70
2021/12/04 03:17:44;;;;;;;4.00;3.60;;;6.80;99.90;;;;;;2068039;28;20030;-70
2021/12/04 03:18:45;;;;;;;4.82;3.10;;;6.80;99.90;;;;;;2070959;28;20106;-70
2021/12/04 03:19:46;;;;;;;4.18;3.67;;;6.90;99.90;;;;;;2084820;28;20025;-70
2021/12/04 03:20:47;;;;;;;3.25;2.95;;;6.90;99.90;;;;;;2070948;28;20383;-70
2021/12/04 03:21:47;;;;;;;4.45;3.50;;;6.90;99.90;;;;;;2070424;28;20026;-70
2021/12/04 03:22:49;;;;;;;4.10;3.70;;;6.90;99.90;;;;;;2070980;28;20054;-70
2021/12/04 03:25:19;;;;;;;3.80;3.50;;;6.90;99.90;;;;;;2071123;28;20561;-70
2021/12/04 03:26:20;;;;;;;4.68;3.70;;;6.90;99.90;;;;;;2071041;28;20264;-70
2021/12/04 03:27:22;;;;;;;7.50;3.53;;;6.90;99.90;;;;;;2071652;28;20014;-70
2021/12/04 03:28:22;;;;;;;3.92;3.63;;;6.90;99.90;;;;;;2071484;28;20461;-70
2021/12/04 03:29:26;;;;;;;4.55;3.90;;;6.90;99.90;;;;;;2071650;28;20140;-70
2021/12/04 03:30:40;;;;;;;4.65;3.25;;;7.00;99.90;;;;;;2071613;28;20069;-70
2021/12/04 03:31:54;;;;;;;3.83;3.42;;;6.90;99.90;;;;;;2071563;28;20456;-70
2021/12/04 03:41:44;;;;;;;3.15;2.95;;;6.70;99.90;;;;;;2071842;28;20670;-70
2021/12/04 03:42:45;;;;;;;3.47;3.17;;;6.70;99.90;;;;;;2070845;28;20498;-70
2021/12/04 03:43:45;;;;;;;3.40;3.20;;;6.70;99.90;;;;;;2070373;28;20068;-70
2021/12/04 03:44:46;;;;;;;4.32;3.60;;;6.70;99.90;;;;;;2069438;28;20029;-69
2021/12/04 03:45:53;;;;;;;3.10;2.90;;;6.70;99.90;;;;;;2075581;28;20025;-69
2021/12/04 03:46:53;;;;;;;3.03;2.83;;;6.70;99.90;;;;;;2074602;28;20026;-70
2021/12/04 03:48:03;;;;;;;3.53;3.30;;;6.70;99.90;;;;;;2071320;28;20105;-69
2021/12/04 03:49:04;;;;;;;3.70;3.40;;;6.80;99.90;;;;;;2074165;28;20503;-70
2021/12/04 03:50:05;;;;;;;3.13;2.92;;;6.70;99.90;;;;;;2070798;28;20241;-70
2021/12/04 03:51:07;;;;;;;3.47;3.28;;;6.80;99.90;;;;;;2070823;28;20120;-70
2021/12/04 03:52:08;;;;;;;3.22;2.92;;;6.80;99.90;;;;;;2071552;28;20104;-70
2021/12/04 03:53:09;;;;;;;3.28;3.08;;;6.80;99.90;;;;;;2072026;28;20034;-70
2021/12/04 03:54:09;;;;;;;3.83;3.17;;;6.80;99.90;;;;;;2071638;28;20025;-70
2021/12/04 03:55:11;;;;;;;3.53;3.17;;;6.80;99.90;;;;;;2071245;28;20046;-70
2021/12/04 03:56:14;;;;;;;2.85;2.65;;;6.80;99.90;;;;;;2071613;28;20022;-70
2021/12/04 03:57:15;;;;;;;3.67;3.08;;;6.80;99.90;;;;;;2071691;28;20441;-69
2021/12/04 03:58:17;;;;;;;4.57;3.35;;;6.80;99.90;;;;;;2071365;28;20037;-69
2021/12/04 03:59:20;;;;;;;4.45;2.90;;;6.80;99.90;;;;;;2071461;28;20048;-70
2021/12/04 04:00:23;;;;;;;3.03;2.72;;;6.80;99.90;;;;;;2071397;28;20032;-70
2021/12/04 04:01:24;;;;;;;4.32;3.05;;;6.80;99.90;;;;;;2071294;28;20108;-70
2021/12/04 04:02:24;;;;;;;3.20;2.90;;;6.80;99.90;;;;;;2078434;28;20490;-70
2021/12/04 04:03:27;;;;;;;3.05;2.83;;;6.80;99.90;;;;;;2070628;28;20042;-70
2021/12/04 04:04:27;;;;;;;3.20;3.00;;;6.80;99.90;;;;;;2071420;28;20057;-70
2021/12/04 04:05:28;;;;;;;3.58;3.20;;;6.90;99.90;;;;;;2063455;28;20077;-70
2021/12/04 04:06:28;;;;;;;3.60;3.30;;;6.90;99.90;;;;;;2070678;28;20064;-70
2021/12/04 04:07:29;;;;;;;5.05;3.70;;;6.90;99.90;;;;;;2070560;28;20032;-70
2021/12/04 04:08:30;;;;;;;3.55;3.03;;;6.90;99.90;;;;;;2071282;28;20137;-70
2021/12/04 04:09:30;;;;;;;3.70;3.20;;;6.90;99.90;;;;;;2070914;28;20025;-70
2021/12/04 04:10:31;;;;;;;3.35;3.13;;;6.90;99.90;;;;;;2067402;28;20033;-70
2021/12/04 04:11:35;;;;;;;3.63;3.33;;;6.90;99.90;;;;;;2078800;28;20041;-70
2021/12/04 04:12:36;;;;;;;3.45;3.15;;;6.90;99.90;;;;;;2077966;28;20029;-70
2021/12/04 04:13:41;;;;;;;3.78;2.88;;;6.90;99.90;;;;;;2071551;28;20328;-70
2021/12/04 04:14:41;;;;;;;3.72;3.42;;;6.90;99.90;;;;;;2071098;28;20397;-70
2021/12/04 04:15:42;;;;;;;3.33;2.92;;;6.90;99.90;;;;;;2067962;28;20058;-70
2021/12/04 04:16:43;;;;;;;5.47;3.47;;;6.90;99.90;;;;;;2070457;28;20026;-69
2021/12/04 04:17:43;;;;;;;3.78;3.35;;;6.90;99.90;;;;;;2071197;28;20041;-70
2021/12/04 04:18:44;;;;;;;2.97;2.70;;;7.00;99.90;;;;;;2073266;28;20382;-69
2021/12/04 04:19:44;;;;;;;3.58;3.17;;;6.90;99.90;;;;;;2073558;28;20448;-70
2021/12/04 04:20:45;;;;;;;3.38;3.08;;;7.00;99.90;;;;;;2070582;28;20077;-70
2021/12/04 04:21:47;;;;;;;3.25;3.03;;;7.00;99.90;;;;;;2071564;28;20037;-70
2021/12/04 04:22:48;;;;;;;6.63;3.33;;;6.90;99.90;;;;;;2070575;28;20029;-70
2021/12/04 04:23:49;;;;;;;3.28;3.08;;;6.90;99.90;;;;;;2071022;28;20034;-70
2021/12/04 04:24:50;;;;;;;3.85;3.22;;;7.00;99.90;;;;;;2071309;28;20593;-70
2021/12/04 04:25:50;;;;;;;3.20;2.92;;;7.00;99.90;;;;;;2071368;28;20085;-70
2021/12/04 04:26:51;;;;;;;3.50;3.17;;;7.00;99.90;;;;;;2070725;28;20041;-70
2021/12/04 04:27:51;;;;;;;3.28;3.00;;;7.00;99.90;;;;;;2071385;28;20355;-70
2021/12/04 04:28:54;;;;;;;3.83;3.45;;;7.00;99.90;;;;;;2071127;28;20025;-70
2021/12/04 04:29:54;;;;;;;3.28;2.97;;;7.00;99.90;;;;;;2071311;28;20018;-70
2021/12/04 04:30:55;;;;;;;3.50;3.20;;;7.00;99.90;;;;;;2071217;28;20072;-70
2021/12/04 04:31:55;;;;;;;3.70;3.40;;;7.00;99.90;;;;;;2070647;28;20029;-70
2021/12/04 04:32:56;;;;;;;3.35;3.00;;;7.00;99.90;;;;;;2070569;28;20026;-70
2021/12/04 04:34:02;;;;;;;3.55;3.17;;;7.00;99.90;;;;;;2072129;28;20034;-70
2021/12/04 04:35:09;;;;;;;3.42;3.22;;;7.00;99.90;;;;;;2072458;28;20029;-70
2021/12/04 04:38:55;;;;;;;3.40;3.20;;;6.90;99.90;;;;;;2077607;28;20038;-70
2021/12/04 05:00:37;;;;;;;3.22;3.03;;;6.80;99.90;;;;;;2064245;28;20486;-70
2021/12/04 05:11:05;;;;;;;5.00;3.50;;;6.80;99.90;;;;;;2070905;28;20022;-69
2021/12/04 05:13:10;;;;;;;3.63;3.33;;;6.80;99.90;;;;;;2071233;28;20562;-70
2021/12/04 05:14:18;;;;;;;3.50;3.20;;;6.80;99.90;;;;;;2072441;28;20394;-70
2021/12/04 05:15:25;;;;;;;4.18;3.78;;;6.80;99.90;;;;;;2072660;28;20114;-70
2021/12/04 05:16:30;;;;;;;3.60;3.30;;;6.80;99.90;;;;;;2072133;28;20041;-70
2021/12/04 05:17:52;;;;;;;2.80;2.65;;;6.80;99.90;;;;;;2072240;28;21218;-70
2021/12/04 05:18:58;;;;;;;;;;;6.80;99.90;;;;;;2072340;28;20030;-69
2021/12/04 05:19:58;;;;;;;3.60;3.30;;;6.70;99.90;;;;;;2072667;28;19944;-69
2021/12/04 05:21:04;;;;;;;3.88;3.28;;;6.70;99.90;;;;;;2071885;28;20656;-69
2021/12/04 05:22:06;;;;;;;3.45;3.15;;;6.70;99.90;;;;;;2072695;28;20478;-69
2021/12/04 05:23:10;;;;;;;3.25;3.05;;;6.70;99.90;;;;;;2064504;28;20085;-69
2021/12/04 05:24:10;;;;;;;4.85;4.45;;;6.70;99.90;;;;;;2067504;28;20366;-69
2021/12/04 05:25:11;;;;;;;4.82;4.10;;;6.70;99.90;;;;;;2072612;28;20025;-69
2021/12/04 05:26:22;;;;;;;5.65;3.85;;;6.70;99.90;;;;;;2068274;28;20061;-69
2021/12/04 05:27:23;;;;;;;3.63;3.38;;;6.70;99.90;;;;;;2072723;28;20470;-69
2021/12/04 05:28:23;;;;;;;3.67;3.38;;;6.70;99.90;;;;;;2072672;28;20119;-69
2021/12/04 05:29:24;;;;;;;3.75;3.45;;;6.70;99.90;;;;;;2072015;28;20145;-69
2021/12/04 05:30:25;;;;;;;3.45;3.15;;;6.80;99.90;;;;;;2072389;28;20449;-69
2021/12/04 05:31:26;;;;;;;3.58;3.28;;;6.70;99.90;;;;;;2072418;28;20136;-69
2021/12/04 05:32:27;;;;;;;4.32;3.67;;;6.80;99.90;;;;;;2072165;28;20053;-69
2021/12/04 05:33:28;;;;;;;3.50;3.20;;;6.80;99.90;;;;;;2071066;28;20053;-69
2021/12/04 05:34:30;;;;;;;3.75;3.45;;;6.80;99.90;;;;;;2071835;28;20540;-70
2021/12/04 05:35:31;;;;;;;4.15;3.75;;;6.80;99.90;;;;;;2071393;28;20038;-69
2021/12/04 05:36:32;;;;;;;3.40;3.10;;;6.80;99.90;;;;;;2071972;28;20588;-69
2021/12/04 05:37:32;;;;;;;3.53;3.22;;;6.80;99.90;;;;;;2072146;28;20065;-69
2021/12/04 05:38:34;;;;;;;3.55;3.22;;;6.80;99.90;;;;;;2072553;28;20021;-69
2021/12/04 05:39:35;;;;;;;3.05;2.85;;;6.80;99.90;;;;;;2072269;28;20057;-69
2021/12/04 05:40:35;;;;;;;3.42;3.13;;;6.80;99.90;;;;;;2072218;28;20022;-69
2021/12/04 05:41:36;;;;;;;3.65;3.38;;;6.80;99.90;;;;;;2071516;28;20026;-69
2021/12/04 05:42:37;;;;;;;3.30;3.00;;;6.80;99.90;;;;;;2072484;28;20049;-69
2021/12/04 05:43:37;;;;;;;3.42;3.08;;;6.90;99.90;;;;;;2071570;28;20024;-69
2021/12/04 05:44:39;;;;;;;3.40;3.10;;;6.90;99.90;;;;;;2072013;28;20022;-69
2021/12/04 05:45:51;;;;;;;3.35;3.15;;;6.90;99.90;;;;;;2072377;28;20018;-69
2021/12/04 05:49:20;;;;;;;3.58;3.28;;;6.90;99.90;;;;;;2072616;28;20056;-69
2021/12/04 05:50:40;;;;;;;2.92;2.72;;;6.90;99.90;;;;;;2072158;28;20014;-69
2021/12/04 05:52:03;;;;;;;3.40;3.10;;;6.90;99.90;;;;;;2072033;28;20030;-69
2021/12/04 05:54:29;;;;;;;3.30;3.10;;;6.90;99.90;;;;;;2072169;28;20026;-69
2021/12/04 05:55:31;;;;;;;3.17;2.90;;;6.90;99.90;;;;;;2071947;28;20057;-69
2021/12/04 05:56:34;;;;;;;3.30;3.00;;;6.90;99.90;;;;;;2071986;28;20474;-69
2021/12/04 05:57:35;;;;;;;3.53;3.22;;;6.90;99.90;;;;;;2072034;28;20061;-69
2021/12/04 05:58:36;;;;;;;3.58;3.28;;;6.90;99.90;;;;;;2071939;28;20033;-69
2021/12/04 05:59:37;;;;;;;3.60;3.30;;;7.00;99.90;;;;;;2072384;28;20030;-69
2021/12/04 06:00:38;;;;;;;3.22;2.97;;;7.00;99.90;;;;;;2072026;28;20480;-69
2021/12/04 06:01:38;;;;;;;3.25;2.95;;;7.00;99.90;;;;;;2072051;28;20052;-69
2021/12/04 06:02:39;;;;;;;3.00;2.80;;;7.00;99.90;;;;;;2071745;28;20042;-69
2021/12/04 06:03:40;;;;;;;4.05;3.45;;;7.00;99.90;;;;;;2071548;28;20022;-69
2021/12/04 06:04:40;;;;;;;3.28;3.08;;;7.00;99.90;;;;;;2072057;28;20014;-69
2021/12/04 06:05:41;;;;;;;3.67;2.95;;;7.00;99.90;;;;;;2071256;28;20049;-69
2021/12/04 06:06:43;;;;;;;3.53;3.28;;;7.00;99.90;;;;;;2071081;28;20084;-69
2021/12/04 06:07:44;;;;;;;4.13;3.35;;;7.00;99.90;;;;;;2069615;28;20072;-69
2021/12/04 06:08:46;;;;;;;3.35;3.05;;;7.00;99.90;;;;;;2071861;28;20026;-69
2021/12/04 06:09:46;;;;;;;3.28;3.03;;;7.00;99.90;;;;;;2069509;28;20029;-69
2021/12/04 06:10:49;;;;;;;3.70;3.38;;;7.00;99.90;;;;;;2070184;28;20057;-69
2021/12/04 06:11:49;;;;;;;4.32;3.15;;;7.00;99.90;;;;;;2070686;28;20040;-69
2021/12/04 06:12:50;;;;;;;3.50;3.20;;;7.00;99.90;;;;;;2071248;28;20104;-69
2021/12/04 06:13:52;;;;;;;3.42;3.13;;;7.00;99.90;;;;;;2071856;28;20088;-69
2021/12/04 06:14:52;;;;;;;3.30;3.00;;;7.00;99.90;;;;;;2071602;28;20058;-69
2021/12/04 06:15:53;;;;;;;3.10;2.90;;;7.00;99.90;;;;;;2072275;28;20037;-69
2021/12/04 06:16:54;;;;;;;3.30;3.10;;;7.00;99.90;;;;;;2072112;28;20026;-69
2021/12/04 06:17:55;;;;;;;3.55;3.25;;;7.00;99.90;;;;;;2072035;28;20034;-69
2021/12/04 06:18:58;;;;;;;3.58;3.03;;;7.00;99.90;;;;;;2071934;28;20025;-69
2021/12/04 06:22:40;;;;;;;3.22;3.03;;;7.00;99.90;;;;;;2069602;28;20069;-69
2021/12/04 06:23:40;;;;;;;4.28;3.25;;;7.00;99.90;;;;;;2070994;28;20026;-69
2021/12/04 06:24:43;;;;;;;3.55;3.30;;;7.00;99.90;;;;;;2070204;28;20083;-69
2021/12/04 06:25:44;;;;;;;2.90;2.70;;;7.00;99.90;;;;;;2070569;28;20099;-69
2021/12/04 06:26:45;;;;;;;3.40;3.20;;;7.00;99.90;;;;;;2071272;28;20108;-69
2021/12/04 06:27:46;;;;;;;3.65;3.35;;;7.00;99.90;;;;;;2070806;28;20454;-69
2021/12/04 06:28:47;;;;;;;4.03;3.42;;;7.00;99.90;;;;;;2071245;28;20049;-69